createdAt,value
2019-01-18T00:01:56.565Z,5.87
2019-01-18T00:07:02.260Z,5.20
2019-01-18T00:12:07.927Z,5.60
2019-01-18T00:17:13.706Z,6.17
2019-01-18T00:22:19.460Z,5.97
2019-01-18T00:27:24.763Z,6.07
2019-01-18T00:32:30.077Z,5.63
2019-01-18T00:37:36.770Z,5.30
2019-01-18T00:42:42.500Z,4.67
2019-01-18T00:47:50.067Z,4.93
2019-01-18T00:52:58.681Z,5.43
2019-01-18T00:58:04.813Z,5.57
2019-01-18T01:03:12.847Z,5.53
2019-01-18T01:08:21.326Z,7.27
2019-01-18T01:13:32.437Z,5.57
2019-01-18T01:18:39.488Z,5.97
2019-01-18T01:23:47.190Z,5.57
2019-01-18T01:28:55.782Z,6.80
2019-01-18T01:34:03.080Z,5.43
2019-01-18T01:39:11.635Z,7.10
2019-01-18T01:44:19.118Z,6.57
2019-01-18T01:49:26.129Z,7.10
2019-01-18T01:54:33.735Z,6.50
2019-01-18T01:59:41.615Z,11.93
2019-01-18T02:04:49.980Z,7.50
2019-01-18T02:09:55.826Z,6.67
2019-01-18T02:15:02.907Z,7.50
2019-01-18T02:20:12.504Z,7.33
2019-01-18T02:25:20.113Z,6.40
2019-01-18T02:30:28.802Z,7.93
2019-01-18T02:35:36.149Z,7.60
2019-01-18T02:40:43.902Z,6.67
2019-01-18T02:45:50.015Z,7.40
2019-01-18T02:50:57.317Z,7.67
2019-01-18T02:56:05.632Z,7.00
2019-01-18T03:01:15.971Z,9.43
2019-01-18T03:06:23.295Z,7.73
2019-01-18T03:11:30.198Z,6.37
2019-01-18T03:16:36.028Z,7.00
2019-01-18T03:21:59.207Z,6.80
2019-01-18T03:27:06.276Z,7.10
2019-01-18T03:32:13.981Z,7.97
2019-01-18T03:37:21.379Z,5.67
2019-01-18T03:42:28.769Z,7.23
2019-01-18T03:47:36.170Z,7.67
2019-01-18T03:52:44.091Z,6.30
2019-01-18T03:58:06.705Z,8.57
2019-01-18T04:03:14.065Z,6.27
2019-01-18T04:08:21.758Z,9.07
2019-01-18T04:13:27.992Z,6.27
2019-01-18T04:18:36.118Z,7.03
2019-01-18T04:23:46.718Z,5.37
2019-01-18T04:28:54.901Z,8.17
2019-01-18T04:34:02.723Z,6.43
2019-01-18T04:39:10.548Z,7.17
2019-01-18T04:44:17.880Z,7.90
2019-01-18T04:49:25.037Z,6.53
2019-01-18T04:54:34.230Z,7.73
2019-01-18T04:59:40.136Z,7.53
2019-01-18T05:05:03.691Z,5.77
2019-01-18T05:10:09.945Z,8.50
2019-01-18T05:15:34.475Z,8.10
2019-01-18T05:20:58.384Z,14.20
2019-01-18T05:26:03.940Z,14.63
2019-01-18T05:31:08.974Z,8.27
2019-01-18T05:36:14.920Z,8.17
2019-01-18T05:41:20.046Z,9.97
2019-01-18T05:46:44.211Z,7.13
2019-01-18T05:52:08.221Z,9.00
2019-01-18T05:57:38.501Z,13.33
2019-01-18T06:03:01.933Z,8.93
2019-01-18T06:31:24.412Z,12.17
2019-01-18T06:36:29.284Z,14.07
2019-01-18T06:41:49.273Z,10.83
2019-01-18T06:46:54.500Z,12.63
2019-01-18T06:51:59.633Z,11.73
2019-01-18T06:57:04.550Z,12.13
2019-01-18T07:02:09.553Z,13.50
2019-01-18T07:07:14.587Z,12.27
2019-01-18T07:12:19.787Z,14.07
2019-01-18T07:17:24.714Z,13.63
2019-01-18T07:22:30.172Z,13.33
2019-01-18T07:27:35.250Z,14.17
2019-01-18T07:32:40.239Z,11.93
2019-01-18T07:37:45.462Z,11.30
2019-01-18T07:42:50.971Z,12.67
2019-01-18T07:48:04.054Z,12.60
2019-01-18T07:53:09.294Z,11.57
2019-01-18T07:58:15.846Z,12.93
2019-01-18T08:03:23.638Z,14.90
2019-01-18T08:08:39.355Z,12.03
2019-01-18T08:13:47.441Z,15.27
2019-01-18T08:18:54.663Z,15.43
2019-01-18T08:24:00.360Z,14.53
2019-01-18T08:29:07.441Z,12.77
2019-01-18T08:34:12.316Z,17.93
2019-01-18T08:39:17.797Z,13.80
2019-01-18T08:44:22.802Z,12.77
2019-01-18T08:49:28.137Z,13.53
2019-01-18T08:54:33.417Z,17.57
2019-01-18T08:59:37.968Z,16.03
2019-01-18T09:04:43.713Z,14.67
2019-01-18T09:09:49.196Z,15.73
2019-01-18T09:14:54.106Z,17.63
2019-01-18T09:19:59.349Z,16.97
2019-01-18T09:25:04.867Z,16.90
2019-01-18T09:30:13.797Z,18.63
2019-01-18T09:35:19.952Z,13.83
2019-01-18T09:40:29.761Z,14.50
2019-01-18T09:45:36.420Z,15.70
2019-01-18T09:50:41.425Z,17.50
2019-01-18T09:55:46.941Z,16.40
2019-01-18T10:00:52.193Z,19.23
2019-01-18T10:05:57.489Z,18.43
2019-01-18T10:11:02.741Z,17.30
2019-01-18T10:16:07.853Z,17.33
2019-01-18T10:21:13.036Z,16.07
2019-01-18T10:26:18.028Z,13.30
2019-01-18T10:31:24.105Z,19.23
2019-01-18T10:36:29.473Z,13.53
2019-01-18T10:41:34.808Z,21.97
2019-01-18T10:46:39.788Z,28.03
2019-01-18T10:51:44.983Z,48.50
2019-01-18T10:56:50.038Z,16.07
2019-01-18T11:01:59.681Z,15.10
2019-01-18T11:07:02.134Z,14.47
2019-01-18T11:12:07.098Z,18.17
2019-01-18T11:17:12.465Z,14.50
2019-01-18T11:22:17.655Z,16.17
2019-01-18T11:27:22.759Z,24.37
2019-01-18T11:32:27.989Z,20.30
2019-01-18T11:37:33.329Z,16.50
2019-01-18T11:42:38.491Z,17.40
2019-01-18T11:47:43.720Z,13.20
2019-01-18T11:52:49.156Z,21.10
2019-01-18T11:57:54.121Z,15.73
2019-01-18T12:02:59.100Z,15.77
2019-01-18T12:08:04.264Z,16.63
2019-01-18T12:13:09.510Z,13.03
2019-01-18T12:18:14.801Z,22.33
2019-01-18T12:23:19.841Z,19.77
2019-01-18T12:28:25.046Z,13.77
2019-01-18T12:33:30.230Z,15.93
2019-01-18T12:38:36.120Z,21.67
2019-01-18T12:43:41.253Z,23.77
2019-01-18T12:48:46.378Z,22.73
2019-01-18T12:53:52.084Z,13.67
2019-01-18T12:58:57.082Z,12.40
2019-01-18T13:04:02.257Z,30.30
2019-01-18T13:09:08.471Z,11.20
2019-01-18T13:14:13.881Z,16.53
2019-01-18T13:19:24.807Z,18.50
2019-01-18T13:24:32.398Z,11.50
2019-01-18T13:29:37.947Z,13.63
2019-01-18T13:34:43.469Z,13.33
2019-01-18T13:39:49.159Z,15.47
2019-01-18T13:44:54.614Z,12.67
2019-01-18T13:49:59.790Z,21.03
2019-01-18T13:55:05.552Z,8.20
2019-01-18T14:00:11.122Z,9.27
2019-01-18T14:05:16.999Z,7.03
2019-01-18T14:10:26.640Z,8.87
2019-01-18T14:15:34.062Z,9.33
2019-01-18T14:20:39.731Z,18.40
2019-01-18T14:25:49.821Z,12.57
2019-01-18T14:30:57.314Z,8.27
2019-01-18T14:36:04.260Z,9.93
2019-01-18T14:41:15.820Z,8.90
2019-01-18T14:46:22.592Z,6.17
2019-01-18T14:51:29.749Z,10.50
2019-01-18T14:56:37.248Z,8.53
2019-01-18T15:01:47.824Z,10.07
2019-01-18T15:06:55.277Z,11.33
2019-01-18T15:12:18.475Z,9.90
2019-01-18T15:17:25.216Z,8.30
2019-01-18T15:22:33.498Z,9.10
2019-01-18T15:27:47.367Z,9.50
2019-01-18T15:32:56.314Z,10.43
2019-01-18T15:38:04.641Z,9.47
2019-01-18T15:43:21.410Z,8.37
2019-01-18T15:48:29.775Z,10.00
2019-01-18T15:53:36.813Z,11.17
2019-01-18T15:58:43.526Z,12.57
2019-01-18T16:03:53.549Z,13.80
2019-01-18T16:09:01.194Z,13.03
2019-01-18T16:14:08.574Z,14.37
2019-01-18T16:19:18.484Z,11.60
2019-01-18T16:24:26.045Z,12.60
2019-01-18T16:29:31.852Z,11.53
2019-01-18T16:34:44.562Z,10.63
2019-01-18T16:40:01.637Z,9.87
2019-01-18T16:45:09.782Z,13.93
2019-01-18T16:50:22.704Z,11.23
2019-01-18T16:55:31.217Z,9.60
2019-01-18T17:00:38.459Z,10.97
2019-01-18T17:05:44.095Z,8.53
2019-01-18T17:10:49.294Z,9.37
2019-01-18T17:15:57.588Z,9.80
2019-01-18T17:21:03.128Z,9.27
2019-01-18T17:26:08.467Z,8.13
2019-01-18T17:31:32.750Z,9.70
2019-01-18T17:36:46.652Z,8.23
2019-01-18T17:42:47.197Z,11.83
2019-01-18T17:48:36.551Z,6.60
2019-01-18T17:54:08.747Z,6.97
2019-01-18T17:59:24.679Z,7.57
2019-01-18T18:04:57.225Z,9.47
2019-01-18T18:10:40.050Z,7.87
2019-01-18T18:16:44.272Z,7.63
2019-01-18T18:22:53.263Z,6.77
2019-01-18T18:29:03.771Z,10.17
2019-01-18T18:35:01.318Z,8.53
2019-01-18T18:41:00.308Z,5.30
2019-01-18T18:47:11.745Z,6.57
2019-01-18T18:53:17.013Z,6.17
2019-01-18T18:59:05.417Z,6.73
2019-01-18T19:05:12.340Z,6.13
2019-01-18T19:11:20.602Z,7.53
2019-01-18T19:17:11.270Z,6.73
2019-01-18T19:23:01.700Z,7.73
2019-01-18T19:29:06.133Z,6.93
2019-01-18T19:35:03.861Z,4.97
2019-01-18T19:41:00.907Z,3.90
2019-01-18T19:47:23.328Z,3.27
2019-01-18T19:53:21.262Z,3.90
2019-01-18T19:59:24.714Z,3.10
2019-01-18T20:05:34.588Z,4.57
2019-01-18T20:11:34.974Z,4.47
2019-01-18T20:17:25.997Z,4.13
2019-01-18T20:23:58.250Z,4.53
2019-01-18T20:30:08.609Z,12.87
2019-01-18T20:36:24.062Z,4.50
2019-01-18T20:42:31.749Z,5.37
2019-01-18T20:48:43.880Z,3.57
2019-01-18T20:54:40.407Z,7.40
2019-01-18T21:00:49.244Z,6.30
2019-01-18T21:06:25.064Z,7.07
2019-01-18T21:12:24.442Z,5.23
2019-01-18T21:18:24.843Z,5.97
2019-01-18T21:24:05.262Z,4.73
2019-01-18T21:30:11.399Z,4.13
2019-01-18T21:35:55.184Z,4.57
2019-01-18T21:41:55.722Z,3.73
2019-01-18T21:47:52.674Z,5.60
2019-01-18T21:53:48.413Z,4.60
2019-01-18T21:59:49.693Z,14.83
2019-01-18T22:05:38.273Z,6.00
2019-01-18T22:11:46.842Z,7.83
2019-01-18T22:17:28.036Z,7.83
2019-01-18T22:23:39.388Z,9.57
2019-01-18T22:29:56.055Z,5.67
2019-01-18T22:36:09.495Z,6.63
2019-01-18T22:42:14.473Z,5.20
2019-01-18T22:48:05.955Z,6.07
2019-01-18T22:54:21.498Z,5.23
2019-01-18T23:01:11.912Z,5.10
2019-01-18T23:06:53.725Z,5.53
2019-01-18T23:12:57.317Z,3.93
2019-01-18T23:18:39.366Z,4.77
2019-01-18T23:24:37.132Z,6.30
2019-01-18T23:30:38.075Z,5.43
2019-01-18T23:36:38.350Z,5.63
2019-01-18T23:42:51.977Z,4.70
2019-01-18T23:48:46.582Z,6.40
2019-01-18T23:54:33.941Z,6.17
